createdAt,value
2023-05-18T00:02:09.741Z,3.08
2023-05-18T00:04:37.500Z,3.53
2023-05-18T00:07:05.495Z,2.38
2023-05-18T00:09:34.854Z,2.90
2023-05-18T00:12:02.952Z,2.30
2023-05-18T00:14:30.481Z,2.83
2023-05-18T00:16:58.002Z,3.22
2023-05-18T00:19:25.380Z,2.75
2023-05-18T00:21:52.709Z,3.30
2023-05-18T00:24:19.802Z,2.65
2023-05-18T00:26:47.919Z,2.78
2023-05-18T00:29:15.466Z,2.58
2023-05-18T00:31:44.363Z,3.38
2023-05-18T00:34:13.464Z,2.85
2023-05-18T00:36:41.142Z,3.40
2023-05-18T00:39:09.557Z,2.83
2023-05-18T00:41:36.936Z,2.92
2023-05-18T00:44:05.118Z,2.72
2023-05-18T00:46:32.787Z,2.80
2023-05-18T00:49:02.157Z,3.05
2023-05-18T00:51:32.065Z,2.53
2023-05-18T00:54:01.571Z,2.67
2023-05-18T00:56:29.218Z,3.13
2023-05-18T00:58:57.315Z,2.78
2023-05-18T01:01:30.132Z,2.65
2023-05-18T01:04:02.247Z,2.47
2023-05-18T01:06:36.190Z,2.78
2023-05-18T01:09:07.262Z,2.85
2023-05-18T01:11:47.787Z,2.70
2023-05-18T01:17:29.122Z,2.97
2023-05-18T01:20:26.721Z,2.75
2023-05-18T01:23:24.045Z,3.90
2023-05-18T01:26:13.042Z,2.70
2023-05-18T01:28:41.272Z,2.75
2023-05-18T01:31:08.833Z,3.95
2023-05-18T01:33:35.875Z,2.63
2023-05-18T01:36:02.822Z,2.78
2023-05-18T01:38:30.041Z,3.17
2023-05-18T01:41:12.323Z,2.40
2023-05-18T01:43:58.397Z,3.20
2023-05-18T01:46:46.125Z,2.97
2023-05-18T01:49:24.790Z,3.38
2023-05-18T01:51:54.020Z,2.63
2023-05-18T01:54:22.343Z,3.08
2023-05-18T01:56:52.530Z,1.98
2023-05-18T01:59:19.594Z,2.08
2023-05-18T02:01:46.575Z,2.47
2023-05-18T02:04:15.748Z,2.25
2023-05-18T02:06:43.052Z,2.58
2023-05-18T02:09:10.118Z,2.40
2023-05-18T02:11:37.522Z,2.80
2023-05-18T02:14:04.448Z,2.35
2023-05-18T02:16:31.538Z,2.67
2023-05-18T02:19:00.255Z,2.38
2023-05-18T02:21:27.280Z,3.97
2023-05-18T02:23:54.210Z,2.45
2023-05-18T02:26:21.157Z,2.53
2023-05-18T02:28:53.062Z,2.92
2023-05-18T02:31:20.108Z,2.80
2023-05-18T02:33:47.045Z,2.50
2023-05-18T02:36:14.369Z,3.03
2023-05-18T02:38:44.005Z,2.10
2023-05-18T02:41:12.202Z,2.10
2023-05-18T02:43:39.767Z,2.55
2023-05-18T02:46:08.091Z,3.13
2023-05-18T02:48:35.456Z,3.25
2023-05-18T02:51:02.340Z,2.90
2023-05-18T02:53:29.791Z,2.17
2023-05-18T02:56:03.832Z,2.30
2023-05-18T02:58:46.466Z,2.47
2023-05-18T03:01:37.880Z,2.20
2023-05-18T03:04:04.922Z,1.95
2023-05-18T03:06:32.520Z,2.20
2023-05-18T03:08:59.969Z,2.15
2023-05-18T03:11:34.258Z,2.10
2023-05-18T03:14:01.908Z,2.20
2023-05-18T03:16:29.210Z,1.80
2023-05-18T03:18:59.001Z,2.05
2023-05-18T03:21:33.822Z,2.15
2023-05-18T03:24:02.540Z,2.33
2023-05-18T03:26:31.326Z,2.25
2023-05-18T03:28:59.355Z,6.57
2023-05-18T03:31:27.088Z,3.50
2023-05-18T03:33:56.541Z,2.20
2023-05-18T03:36:26.163Z,1.60
2023-05-18T03:38:53.111Z,2.42
2023-05-18T03:41:20.337Z,1.80
2023-05-18T03:43:47.740Z,2.42
2023-05-18T03:46:15.097Z,2.40
2023-05-18T03:48:42.120Z,2.58
2023-05-18T03:51:09.682Z,1.83
2023-05-18T03:53:37.060Z,1.83
2023-05-18T03:56:03.996Z,2.50
2023-05-18T03:58:31.335Z,2.40
2023-05-18T04:00:59.167Z,1.65
2023-05-18T04:03:27.585Z,1.90
2023-05-18T04:05:55.794Z,2.40
2023-05-18T04:08:25.423Z,2.00
2023-05-18T04:10:52.789Z,2.08
2023-05-18T04:13:20.133Z,1.90
2023-05-18T04:15:47.831Z,2.97
2023-05-18T04:18:15.156Z,1.90
2023-05-18T04:20:42.715Z,2.65
2023-05-18T04:23:10.179Z,1.90
2023-05-18T04:25:39.481Z,2.25
2023-05-18T04:28:07.810Z,2.28
2023-05-18T04:30:37.729Z,2.83
2023-05-18T04:33:06.969Z,2.03
2023-05-18T04:35:35.174Z,3.30
2023-05-18T04:38:02.674Z,1.73
2023-05-18T04:40:33.899Z,2.50
2023-05-18T04:43:01.282Z,2.33
2023-05-18T04:45:30.937Z,2.65
2023-05-18T04:47:58.660Z,1.88
2023-05-18T04:50:25.729Z,2.47
2023-05-18T04:52:53.260Z,2.55
2023-05-18T04:55:26.280Z,2.88
2023-05-18T04:57:57.725Z,2.20
2023-05-18T05:00:26.479Z,2.42
2023-05-18T05:02:54.731Z,2.38
2023-05-18T05:05:25.990Z,2.42
2023-05-18T05:07:53.983Z,2.45
2023-05-18T05:10:21.733Z,2.17
2023-05-18T05:12:50.434Z,2.53
2023-05-18T05:15:18.450Z,3.40
2023-05-18T05:17:47.388Z,2.67
2023-05-18T05:20:14.990Z,2.75
2023-05-18T05:22:42.617Z,3.15
2023-05-18T05:25:11.834Z,2.05
2023-05-18T05:27:39.544Z,3.25
2023-05-18T05:30:07.574Z,3.53
2023-05-18T05:32:37.139Z,2.60
2023-05-18T05:35:06.121Z,2.47
2023-05-18T05:37:35.011Z,2.80
2023-05-18T05:40:02.117Z,2.88
2023-05-18T05:42:32.833Z,2.20
2023-05-18T05:45:00.833Z,3.35
2023-05-18T05:47:28.254Z,2.58
2023-05-18T05:49:55.865Z,3.35
2023-05-18T05:52:23.059Z,3.42
2023-05-18T05:54:51.573Z,2.88
2023-05-18T05:57:18.570Z,2.55
2023-05-18T05:59:45.870Z,2.40
2023-05-18T06:02:13.217Z,2.80
2023-05-18T06:04:41.350Z,3.10
2023-05-18T06:07:09.900Z,3.53
2023-05-18T06:09:37.951Z,3.53
2023-05-18T06:12:05.636Z,2.50
2023-05-18T06:14:33.932Z,3.20
2023-05-18T06:17:01.542Z,3.90
2023-05-18T06:19:28.652Z,4.05
2023-05-18T06:21:56.054Z,3.20
2023-05-18T06:24:25.387Z,3.25
2023-05-18T06:27:24.573Z,3.00
2023-05-18T06:30:18.199Z,3.67
2023-05-18T06:33:04.510Z,3.55
2023-05-18T06:35:33.918Z,3.50
2023-05-18T06:38:00.920Z,3.40
2023-05-18T06:40:27.872Z,4.55
2023-05-18T06:42:54.840Z,4.45
2023-05-18T06:45:31.765Z,4.05
2023-05-18T06:48:10.512Z,3.22
2023-05-18T06:50:37.633Z,3.88
2023-05-18T06:53:05.275Z,3.38
2023-05-18T06:55:32.828Z,3.50
2023-05-18T06:58:00.320Z,3.33
2023-05-18T07:00:27.719Z,3.85
2023-05-18T07:02:55.552Z,3.75
2023-05-18T07:05:23.348Z,3.35
2023-05-18T07:07:50.399Z,3.40
2023-05-18T07:10:17.357Z,3.70
2023-05-18T07:12:44.196Z,3.90
2023-05-18T07:15:11.678Z,3.97
2023-05-18T07:17:39.077Z,3.88
2023-05-18T07:20:07.356Z,3.45
2023-05-18T07:22:35.005Z,3.17
2023-05-18T07:25:02.705Z,3.83
2023-05-18T07:27:29.764Z,3.60
2023-05-18T07:29:56.735Z,3.20
2023-05-18T07:32:24.054Z,3.55
2023-05-18T07:34:51.377Z,3.15
2023-05-18T07:37:18.318Z,3.17
2023-05-18T07:39:46.048Z,2.90
2023-05-18T07:42:12.924Z,3.17
2023-05-18T07:44:39.851Z,3.58
2023-05-18T07:47:07.080Z,3.63
2023-05-18T07:49:34.146Z,2.85
2023-05-18T07:52:02.514Z,2.90
2023-05-18T07:54:29.454Z,3.50
2023-05-18T07:56:59.122Z,3.83
2023-05-18T07:59:27.416Z,3.13
2023-05-18T08:01:54.992Z,2.75
2023-05-18T08:04:21.904Z,3.03
2023-05-18T08:06:48.857Z,3.17
2023-05-18T08:09:15.773Z,2.42
2023-05-18T08:11:44.992Z,3.60
2023-05-18T08:14:11.944Z,2.58
2023-05-18T08:16:39.996Z,2.75
2023-05-18T08:19:07.422Z,2.90
2023-05-18T08:21:34.575Z,2.83
2023-05-18T08:24:04.335Z,2.50
2023-05-18T08:26:31.214Z,3.33
2023-05-18T08:28:58.171Z,2.70
2023-05-18T08:31:25.516Z,3.10
2023-05-18T08:33:52.577Z,2.35
2023-05-18T08:36:19.848Z,2.30
2023-05-18T08:38:46.879Z,3.92
2023-05-18T08:41:26.631Z,1.98
2023-05-18T08:44:01.002Z,2.40
2023-05-18T08:46:42.633Z,2.85
2023-05-18T08:49:11.060Z,1.95
2023-05-18T08:51:38.627Z,1.88
2023-05-18T08:54:06.323Z,2.78
2023-05-18T08:56:34.487Z,2.00
2023-05-18T08:59:07.996Z,2.40
2023-05-18T09:01:35.979Z,2.40
2023-05-18T09:04:03.357Z,1.90
2023-05-18T09:06:30.952Z,1.77
2023-05-18T09:08:58.486Z,1.95
2023-05-18T09:11:26.593Z,2.28
2023-05-18T09:13:54.469Z,2.53
2023-05-18T09:16:22.010Z,2.03
2023-05-18T09:18:49.635Z,2.05
2023-05-18T09:21:16.699Z,2.40
2023-05-18T09:23:44.531Z,2.20
2023-05-18T09:26:13.304Z,2.47
2023-05-18T09:28:43.683Z,2.03
2023-05-18T09:33:44.927Z,2.15
2023-05-18T09:36:12.573Z,2.20
2023-05-18T09:38:46.009Z,1.95
2023-05-18T09:41:17.199Z,2.28
2023-05-18T09:43:45.460Z,1.85
2023-05-18T09:46:13.587Z,2.38
2023-05-18T09:48:51.178Z,2.22
2023-05-18T09:51:18.735Z,3.33
2023-05-18T09:53:59.059Z,3.22
2023-05-18T09:58:54.303Z,2.00
2023-05-18T10:01:21.817Z,2.00
2023-05-18T10:03:49.855Z,1.77
2023-05-18T10:06:21.384Z,2.28
2023-05-18T10:08:48.748Z,2.30
2023-05-18T10:11:21.824Z,2.22
2023-05-18T10:13:56.024Z,2.15
2023-05-18T10:16:24.173Z,2.45
2023-05-18T10:18:54.340Z,1.80
2023-05-18T10:21:24.291Z,2.50
2023-05-18T10:23:52.619Z,2.77
2023-05-18T10:26:25.541Z,2.50
2023-05-18T10:28:55.756Z,2.30
2023-05-18T10:31:24.751Z,1.80
2023-05-18T10:33:53.205Z,2.10
2023-05-18T10:36:20.765Z,1.45
2023-05-18T10:38:48.209Z,1.95
2023-05-18T10:41:18.548Z,2.50
2023-05-18T10:46:16.199Z,2.05
2023-05-18T10:48:48.306Z,1.83
2023-05-18T10:51:15.800Z,1.75
2023-05-18T10:53:44.219Z,2.03
2023-05-18T10:56:11.269Z,1.77
2023-05-18T10:58:39.655Z,1.80
2023-05-18T11:01:10.723Z,1.73
2023-05-18T11:03:40.998Z,2.15
2023-05-18T11:06:12.833Z,1.67
2023-05-18T11:08:46.522Z,2.05
2023-05-18T11:11:15.067Z,2.15
2023-05-18T11:13:46.123Z,2.10
2023-05-18T11:16:14.943Z,1.60
2023-05-18T11:18:45.300Z,1.80
2023-05-18T11:24:26.653Z,1.88
2023-05-18T11:27:03.334Z,2.10
2023-05-18T11:29:35.818Z,1.75
2023-05-18T11:32:04.833Z,1.80
2023-05-18T11:34:44.908Z,2.10
2023-05-18T11:37:31.996Z,1.23
2023-05-18T11:40:01.937Z,1.80
2023-05-18T11:42:37.651Z,1.83
2023-05-18T11:45:09.342Z,1.55
2023-05-18T11:47:36.902Z,2.15
2023-05-18T11:50:08.330Z,2.05
2023-05-18T11:52:51.719Z,1.80
2023-05-18T11:55:20.313Z,1.60
2023-05-18T11:57:54.940Z,2.10
2023-05-18T12:00:24.721Z,2.13
2023-05-18T12:02:52.796Z,2.03
2023-05-18T12:05:20.143Z,1.55
2023-05-18T12:07:52.711Z,2.25
2023-05-18T12:10:21.967Z,2.20
2023-05-18T12:12:53.536Z,1.73
2023-05-18T12:15:24.834Z,2.22
2023-05-18T12:17:52.276Z,1.70
2023-05-18T12:20:22.025Z,1.70
2023-05-18T12:22:52.027Z,2.05
2023-05-18T12:25:21.222Z,2.20
2023-05-18T12:27:48.693Z,1.83
2023-05-18T12:30:15.762Z,2.40
2023-05-18T12:32:48.393Z,2.42
2023-05-18T12:35:15.561Z,1.90
2023-05-18T12:37:46.393Z,1.65
2023-05-18T12:40:18.390Z,1.50
2023-05-18T12:43:04.164Z,1.90
2023-05-18T12:45:34.266Z,1.52
2023-05-18T12:48:09.080Z,2.25
2023-05-18T12:50:37.270Z,2.15
2023-05-18T12:53:04.528Z,1.92
2023-05-18T12:55:34.847Z,1.55
2023-05-18T12:58:16.882Z,1.45
2023-05-18T13:00:45.610Z,2.08
2023-05-18T13:03:17.497Z,1.52
2023-05-18T13:05:46.783Z,2.65
2023-05-18T13:08:22.131Z,1.55
2023-05-18T13:10:58.168Z,1.73
2023-05-18T13:13:32.950Z,1.75
2023-05-18T13:16:00.463Z,1.45
2023-05-18T13:18:28.377Z,1.60
2023-05-18T13:20:58.607Z,1.85
2023-05-18T13:25:57.404Z,1.38
2023-05-18T13:28:25.395Z,2.10
2023-05-18T13:30:52.291Z,2.53
2023-05-18T13:33:19.341Z,1.73
2023-05-18T13:35:46.824Z,2.17
2023-05-18T13:38:14.408Z,1.90
2023-05-18T13:40:42.557Z,2.15
2023-05-18T13:43:11.249Z,2.17
2023-05-18T13:45:41.052Z,1.70
2023-05-18T13:48:10.679Z,2.15
2023-05-18T13:50:39.400Z,1.48
2023-05-18T13:53:06.846Z,1.95
2023-05-18T13:55:34.346Z,1.83
2023-05-18T13:58:01.356Z,1.80
2023-05-18T14:00:28.524Z,2.03
2023-05-18T14:02:56.484Z,1.90
2023-05-18T14:05:23.714Z,2.05
2023-05-18T14:07:52.509Z,1.70
2023-05-18T14:10:19.942Z,1.77
2023-05-18T14:12:47.130Z,1.35
2023-05-18T14:15:14.883Z,1.83
2023-05-18T14:17:45.099Z,1.85
2023-05-18T14:20:13.459Z,1.90
2023-05-18T14:22:40.942Z,1.33
2023-05-18T14:25:08.398Z,2.05
2023-05-18T14:27:35.457Z,1.85
2023-05-18T14:30:02.396Z,1.98
2023-05-18T14:32:29.397Z,2.17
2023-05-18T14:34:58.002Z,1.98
2023-05-18T14:37:25.598Z,1.60
2023-05-18T14:39:52.546Z,1.52
2023-05-18T14:42:19.443Z,1.88
2023-05-18T14:44:46.836Z,1.92
2023-05-18T14:47:13.787Z,1.50
2023-05-18T14:49:40.759Z,1.83
2023-05-18T14:52:07.633Z,2.65
2023-05-18T14:54:34.545Z,2.55
2023-05-18T14:57:01.425Z,1.73
2023-05-18T14:59:28.414Z,1.85
2023-05-18T15:01:55.563Z,2.45
2023-05-18T15:04:22.568Z,1.88
2023-05-18T15:06:49.870Z,2.10
2023-05-18T15:09:17.347Z,2.00
2023-05-18T15:11:44.346Z,2.20
2023-05-18T15:14:11.335Z,2.13
2023-05-18T15:16:38.922Z,1.60
2023-05-18T15:19:06.294Z,2.58
2023-05-18T15:21:33.476Z,1.70
2023-05-18T15:24:00.356Z,2.10
2023-05-18T15:26:27.679Z,2.28
2023-05-18T15:28:54.626Z,1.77
2023-05-18T15:31:21.577Z,2.25
2023-05-18T15:33:48.505Z,2.25
2023-05-18T15:36:16.101Z,2.03
2023-05-18T15:38:43.053Z,2.13
2023-05-18T15:41:11.353Z,2.38
2023-05-18T15:43:39.145Z,1.70
2023-05-18T15:46:06.150Z,2.05
2023-05-18T15:48:33.274Z,1.60
2023-05-18T15:51:00.134Z,1.80
2023-05-18T15:53:27.030Z,1.92
2023-05-18T15:55:58.707Z,1.75
2023-05-18T15:58:26.661Z,1.52
2023-05-18T16:00:53.907Z,2.28
2023-05-18T16:03:21.389Z,2.05
2023-05-18T16:05:48.557Z,2.10
2023-05-18T16:08:15.461Z,1.98
2023-05-18T16:10:42.416Z,2.30
2023-05-18T16:13:09.280Z,1.85
2023-05-18T16:15:36.392Z,2.00
2023-05-18T16:18:03.623Z,1.88
2023-05-18T16:20:31.067Z,2.08
2023-05-18T16:22:58.683Z,2.25
2023-05-18T16:25:26.383Z,1.67
2023-05-18T16:27:53.283Z,2.05
2023-05-18T16:30:20.790Z,2.08
2023-05-18T16:32:48.036Z,2.85
2023-05-18T16:35:15.499Z,1.88
2023-05-18T16:37:42.548Z,2.38
2023-05-18T16:40:10.597Z,2.70
2023-05-18T16:42:37.606Z,1.60
2023-05-18T16:45:04.914Z,1.60
2023-05-18T16:47:34.517Z,2.28
2023-05-18T16:50:01.543Z,1.98
2023-05-18T16:52:28.585Z,1.95
2023-05-18T16:54:55.485Z,1.45
2023-05-18T16:57:22.454Z,2.25
2023-05-18T16:59:49.387Z,1.88
2023-05-18T17:02:18.000Z,2.17
2023-05-18T17:04:45.988Z,2.13
2023-05-18T17:07:12.984Z,1.85
2023-05-18T17:09:41.716Z,1.65
2023-05-18T17:12:10.464Z,1.80
2023-05-18T17:14:38.335Z,1.80
2023-05-18T17:17:06.615Z,1.80
2023-05-18T17:19:34.996Z,1.48
2023-05-18T17:22:03.118Z,1.70
2023-05-18T17:24:30.481Z,2.90
2023-05-18T17:26:57.612Z,1.65
2023-05-18T17:29:24.527Z,2.55
2023-05-18T17:31:51.465Z,1.70
2023-05-18T17:34:18.462Z,1.60
2023-05-18T17:36:45.632Z,1.77
2023-05-18T17:39:13.070Z,2.20
2023-05-18T17:41:39.935Z,2.03
2023-05-18T17:44:06.983Z,1.45
2023-05-18T17:46:34.018Z,1.40
2023-05-18T17:49:04.982Z,2.00
2023-05-18T17:51:31.947Z,1.65
2023-05-18T17:53:59.117Z,2.13
2023-05-18T17:56:27.871Z,2.58
2023-05-18T17:58:54.746Z,1.70
2023-05-18T18:01:21.792Z,1.77
2023-05-18T18:03:49.161Z,2.40
2023-05-18T18:06:17.825Z,2.35
2023-05-18T18:08:45.110Z,1.70
2023-05-18T18:11:12.167Z,1.55
2023-05-18T18:13:39.028Z,1.35
2023-05-18T18:16:06.273Z,1.38
2023-05-18T18:18:36.156Z,1.77
2023-05-18T18:21:03.937Z,1.85
2023-05-18T18:23:31.041Z,2.05
2023-05-18T18:25:58.602Z,1.75
2023-05-18T18:28:25.886Z,1.67
2023-05-18T18:30:52.958Z,1.95
2023-05-18T18:33:20.928Z,1.58
2023-05-18T18:35:48.435Z,1.70
2023-05-18T18:38:15.319Z,1.52
2023-05-18T18:40:42.315Z,1.75
2023-05-18T18:43:09.242Z,2.13
2023-05-18T18:45:36.208Z,1.80
2023-05-18T18:48:03.468Z,1.25
2023-05-18T18:50:30.805Z,1.80
2023-05-18T18:52:58.019Z,1.88
2023-05-18T18:55:25.056Z,2.08
2023-05-18T18:57:53.036Z,1.60
2023-05-18T19:00:21.420Z,2.00
2023-05-18T19:02:48.935Z,1.70
2023-05-18T19:05:21.535Z,1.73
2023-05-18T19:07:49.903Z,1.67
2023-05-18T19:10:17.123Z,2.58
2023-05-18T19:12:44.115Z,1.40
2023-05-18T19:15:13.445Z,1.40
2023-05-18T19:17:45.839Z,1.55
2023-05-18T19:20:13.167Z,2.25
2023-05-18T19:22:40.463Z,1.85
2023-05-18T19:25:07.632Z,1.67
2023-05-18T19:27:34.547Z,1.58
2023-05-18T19:30:04.075Z,1.55
2023-05-18T19:32:31.678Z,1.80
2023-05-18T19:34:58.659Z,1.70
2023-05-18T19:37:25.666Z,1.95
2023-05-18T19:39:52.546Z,1.73
2023-05-18T19:42:19.419Z,1.58
2023-05-18T19:44:46.390Z,1.88
2023-05-18T19:47:13.277Z,1.65
2023-05-18T19:49:40.161Z,1.95
2023-05-18T19:52:09.888Z,1.67
2023-05-18T19:54:38.205Z,2.22
2023-05-18T19:57:05.560Z,2.08
2023-05-18T19:59:32.413Z,1.58
2023-05-18T20:01:59.570Z,1.92
2023-05-18T20:04:28.287Z,2.72
2023-05-18T20:06:59.580Z,1.55
2023-05-18T20:09:27.692Z,1.92
2023-05-18T20:11:56.132Z,1.85
2023-05-18T20:14:23.676Z,1.98
2023-05-18T20:16:52.410Z,1.52
2023-05-18T20:19:19.654Z,1.75
2023-05-18T20:21:49.842Z,1.95
2023-05-18T20:24:16.854Z,2.50
2023-05-18T20:26:43.752Z,2.33
2023-05-18T20:29:10.873Z,1.83
2023-05-18T20:31:37.810Z,2.08
2023-05-18T20:34:06.330Z,1.95
2023-05-18T20:36:33.292Z,2.40
2023-05-18T20:39:00.559Z,1.95
2023-05-18T20:41:28.482Z,2.30
2023-05-18T20:43:55.910Z,2.05
2023-05-18T20:46:24.806Z,2.13
2023-05-18T20:48:55.178Z,2.20
2023-05-18T20:51:23.280Z,2.20
2023-05-18T20:53:50.484Z,1.80
2023-05-18T20:56:18.128Z,2.08
2023-05-18T20:58:49.924Z,1.70
2023-05-18T21:01:18.516Z,2.13
2023-05-18T21:03:46.281Z,1.73
2023-05-18T21:06:14.082Z,2.42
2023-05-18T21:08:42.472Z,1.65
2023-05-18T21:11:09.730Z,1.77
2023-05-18T21:13:37.237Z,2.38
2023-05-18T21:16:08.613Z,2.08
2023-05-18T21:18:37.315Z,2.50
2023-05-18T21:21:04.591Z,1.88
2023-05-18T21:23:31.793Z,1.88
2023-05-18T21:25:58.714Z,1.55
2023-05-18T21:28:25.662Z,1.25
2023-05-18T21:30:54.063Z,1.50
2023-05-18T21:33:21.908Z,1.85
2023-05-18T21:35:49.068Z,1.67
2023-05-18T21:38:17.198Z,1.85
2023-05-18T21:40:44.340Z,2.83
2023-05-18T21:43:12.485Z,1.85
2023-05-18T21:45:39.609Z,1.88
2023-05-18T21:48:06.843Z,2.08
2023-05-18T21:50:36.772Z,2.03
2023-05-18T21:53:03.847Z,2.22
2023-05-18T21:55:32.058Z,1.67
2023-05-18T21:57:59.438Z,2.28
2023-05-18T22:00:27.325Z,1.77
2023-05-18T22:02:54.501Z,2.13
2023-05-18T22:05:21.553Z,2.00
2023-05-18T22:07:49.081Z,2.10
2023-05-18T22:10:17.795Z,1.90
2023-05-18T22:12:45.360Z,1.80
2023-05-18T22:15:12.441Z,2.30
2023-05-18T22:17:39.818Z,2.22
2023-05-18T22:20:09.029Z,1.83
2023-05-18T22:22:36.360Z,2.13
2023-05-18T22:25:03.345Z,2.10
2023-05-18T22:27:30.360Z,2.22
2023-05-18T22:29:57.411Z,1.83
2023-05-18T22:32:24.728Z,2.28
2023-05-18T22:34:52.214Z,1.95
2023-05-18T22:37:19.176Z,2.10
2023-05-18T22:39:46.053Z,2.67
2023-05-18T22:42:12.939Z,2.63
2023-05-18T22:44:39.902Z,2.72
2023-05-18T22:47:07.343Z,1.98
2023-05-18T22:49:35.911Z,2.25
2023-05-18T22:52:06.605Z,2.47
2023-05-18T22:54:33.823Z,2.03
2023-05-18T22:57:00.843Z,1.88
2023-05-18T22:59:28.732Z,2.90
2023-05-18T23:01:55.854Z,2.17
2023-05-18T23:04:22.854Z,2.40
2023-05-18T23:06:50.792Z,2.47
2023-05-18T23:09:18.241Z,2.45
2023-05-18T23:11:45.218Z,2.10
2023-05-18T23:14:12.839Z,2.42
2023-05-18T23:16:43.248Z,2.20
2023-05-18T23:19:12.777Z,2.35
2023-05-18T23:21:41.924Z,2.43
2023-05-18T23:24:12.088Z,2.58
2023-05-18T23:29:09.548Z,2.30
2023-05-18T23:31:36.703Z,2.35
2023-05-18T23:34:04.236Z,2.17
2023-05-18T23:36:34.933Z,2.20
2023-05-18T23:39:02.571Z,2.22
2023-05-18T23:41:31.455Z,2.33
2023-05-18T23:43:59.077Z,2.65
2023-05-18T23:46:26.671Z,2.38
2023-05-18T23:48:54.907Z,2.40
2023-05-18T23:51:22.120Z,2.33
2023-05-18T23:53:50.653Z,2.35
2023-05-18T23:56:18.703Z,2.30
2023-05-18T23:58:47.003Z,2.53
